Time;durP1;ratioP1;P1;durP2;ratioP2;P2;SDS_P1;SDS_P2;PMS_P1;PMS_P2;Temp;Humidity;BMP_temperature;BMP_pressure;BME280_temperature;BME280_humidity;BME280_pressure;Samples;Min_cycle;Max_cycle;Signal;HPM_P1;HPM_P2
2022/01/23 00:01:48;;;;;;;24.48;12.15;;;-8.10;19.50;;;-9.02;93.21;99483.59;4975264;28;130329;-70
2022/01/23 00:04:18;;;;;;;26.27;11.68;;;-8.20;17.10;;;-9.14;94.10;99491.94;4982460;28;129987;-70
2022/01/23 00:06:48;;;;;;;25.83;11.50;;;-8.30;18.10;;;-9.13;93.49;99498.84;4984731;28;118815;-71
2022/01/23 00:09:18;;;;;;;23.90;12.00;;;-8.20;18.60;;;-9.07;93.90;99490.22;4983724;28;116303;-70
2022/01/23 00:11:51;;;;;;;28.33;11.45;;;-8.20;22.70;;;-8.99;93.83;99493.72;4979673;28;130753;-70
2022/01/23 00:17:18;;;;;;;21.02;10.95;;;-8.10;18.90;;;-8.95;93.58;99498.44;4978457;28;118861;-70
2022/01/23 00:19:50;;;;;;;24.52;12.00;;;-8.10;18.90;;;-8.82;93.66;99494.34;4969521;28;116062;-70
2022/01/23 00:22:24;;;;;;;27.70;12.32;;;-8.10;21.50;;;-8.91;93.37;99496.25;4982539;28;129861;-69
2022/01/23 00:30:30;;;;;;;24.83;13.00;;;-8.10;22.00;;;-8.83;93.37;99517.19;4951461;28;114249;-70
2022/01/23 00:33:02;;;;;;;25.05;12.55;;;-8.20;23.90;;;-8.75;93.70;99516.28;4994287;28;130184;-70
2022/01/23 00:35:34;;;;;;;25.45;11.82;;;-8.20;26.80;;;-8.86;93.33;99517.56;4982746;28;129533;-70
2022/01/23 00:38:05;;;;;;;26.25;12.90;;;-8.20;23.30;;;-8.96;93.81;99520.50;4983956;28;119516;-71
2022/01/23 00:40:37;;;;;;;26.05;12.48;;;-8.10;19.20;;;-8.73;93.74;99525.59;4979860;28;114200;-70
2022/01/23 00:43:14;;;;;;;26.60;12.52;;;-8.10;25.40;;;-8.93;93.67;99527.19;4980198;28;129476;-70
2022/01/23 00:45:47;;;;;;;27.08;12.25;;;-8.00;16.90;;;-8.69;93.43;99526.88;4974888;28;129329;-71
2022/01/23 00:48:17;;;;;;;25.30;12.55;;;-8.00;24.70;;;-8.69;93.64;99529.50;4984166;28;118245;-70
2022/01/23 00:50:48;;;;;;;25.65;11.98;;;-8.00;20.00;;;-8.82;93.42;99531.16;4976074;28;116077;-70
2022/01/23 00:53:16;;;;;;;27.73;11.73;;;-8.00;17.20;;;-8.82;93.27;99537.22;4980262;28;130117;-68
2022/01/23 00:55:47;;;;;;;30.27;13.50;;;-8.00;17.60;;;-8.78;94.14;99532.44;4993603;28;129605;-69
2022/01/23 00:58:17;;;;;;;26.77;12.98;;;-8.00;18.20;;;-8.77;93.84;99540.16;4975633;28;118629;-68
2022/01/23 01:00:46;;;;;;;26.83;13.85;;;-7.90;19.10;;;-8.57;93.59;99536.91;4984142;28;115610;-69
2022/01/23 01:03:14;;;;;;;28.73;12.85;;;-7.70;23.20;;;-8.68;93.86;99539.03;4983018;28;131237;-71
2022/01/23 01:05:43;;;;;;;27.90;13.07;;;-7.90;21.30;;;-8.61;93.64;99540.94;4973240;28;128823;-70
2022/01/23 01:08:13;;;;;;;30.20;11.75;;;-7.90;22.80;;;-8.69;94.11;99541.84;4971865;28;118726;-69
2022/01/23 01:10:51;;;;;;;25.00;12.20;;;-7.90;19.40;;;-8.54;94.01;99540.00;4982069;28;115496;-69
2022/01/23 01:13:21;;;;;;;25.65;13.38;;;-7.90;22.80;;;-8.56;93.67;99551.72;4966268;28;128827;-69
2022/01/23 01:16:01;;;;;;;29.77;13.52;;;-7.90;20.90;;;-8.47;94.04;99555.84;4981334;28;129558;-69
2022/01/23 01:32:37;;;;;;;26.55;13.23;;;-7.60;27.50;;;-8.21;94.36;99575.53;4982440;28;115660;-69
2022/01/23 01:35:18;;;;;;;32.03;15.13;;;-7.60;24.40;;;-8.36;94.46;99573.75;4972831;28;130048;-69
2022/01/23 01:37:47;;;;;;;28.25;12.30;;;-7.60;22.40;;;-8.17;94.03;99587.31;4981018;28;129827;-69
2022/01/23 01:40:18;;;;;;;32.78;13.02;;;-7.50;26.20;;;-8.26;94.64;99593.72;4973564;28;119006;-69
2022/01/23 01:42:47;;;;;;;26.42;12.85;;;-7.50;24.90;;;-8.06;95.06;99601.81;4978536;28;115639;-69
2022/01/23 01:45:26;;;;;;;26.50;12.15;;;-7.50;27.60;;;-8.14;94.59;99603.56;4976285;28;130148;-68
2022/01/23 01:50:49;;;;;;;21.73;10.80;;;-7.50;23.20;;;-8.57;95.56;99613.22;4979703;28;118041;-69
2022/01/23 01:53:25;;;;;;;25.27;11.73;;;-7.50;21.40;;;-8.61;95.60;99617.25;4978394;28;115028;-69
2022/01/23 01:55:57;;;;;;;27.67;12.25;;;-7.60;21.60;;;-8.54;95.39;99626.03;4966311;28;129952;-69
2022/01/23 01:58:56;;;;;;;26.90;13.20;;;-7.60;22.10;;;-8.51;95.85;99629.13;4980000;28;129453;-70
2022/01/23 02:10:18;;;;;;;25.27;12.65;;;-7.60;19.80;;;-8.50;95.15;99662.31;4971998;28;129798;-70
2022/01/23 02:13:10;;;;;;;29.10;12.68;;;-7.60;22.30;;;-8.58;95.29;99674.78;4975543;28;119099;-70
2022/01/23 02:25:17;;;;;;;31.85;14.05;;;-7.80;16.30;;;-8.77;95.04;99681.38;4976052;28;119456;-69
2022/01/23 02:53:13;;;;;;;32.27;14.77;;;-7.80;20.00;;;-8.76;95.76;99730.38;4977461;28;129702;-71
2022/01/23 02:55:47;;;;;;;26.92;12.88;;;-7.80;21.30;;;-8.70;95.72;99724.41;4981711;28;129772;-69
2022/01/23 02:58:21;;;;;;;25.38;11.55;;;-7.70;19.90;;;-8.68;95.48;99723.22;4981951;28;119149;-69
2022/01/23 03:01:07;;;;;;;26.48;11.75;;;-7.80;20.90;;;-8.74;95.77;99739.75;4973021;28;116009;-69
2022/01/23 03:03:59;;;;;;;26.90;12.85;;;-7.80;19.00;;;-8.75;95.69;99743.34;4975415;28;130082;-69
2022/01/23 03:07:09;;;;;;;25.27;12.02;;;-7.80;22.20;;;-8.73;95.58;99735.28;4978417;28;129201;-69
2022/01/23 03:10:01;;;;;;;27.38;12.02;;;-7.80;20.40;;;-8.78;95.50;99748.97;4981952;28;118552;-71
2022/01/23 03:15:28;;;;;;;27.15;12.32;;;-7.80;21.30;;;-8.56;95.62;99744.63;4980915;28;130815;-69
2022/01/23 03:26:27;;;;;;;27.88;12.20;;;-7.70;23.00;;;-8.59;95.69;99749.47;5003187;28;130705;-69
2022/01/23 03:29:17;;;;;;;22.67;11.27;;;-7.60;22.50;;;-8.58;95.27;99743.22;4968665;28;129711;-70
2022/01/23 03:32:00;;;;;;;22.42;10.88;;;-7.70;22.90;;;-8.60;95.07;99760.97;4975403;28;119514;-69
2022/01/23 03:34:32;;;;;;;26.67;11.98;;;-7.80;21.10;;;-8.63;95.37;99761.34;4970879;28;115732;-69
2022/01/23 03:37:00;;;;;;;30.92;12.63;;;-7.70;22.10;;;-8.55;95.71;99753.38;4981636;28;129942;-69
2022/01/23 03:39:29;;;;;;;29.33;12.48;;;-7.70;22.70;;;-8.53;95.58;99756.63;4964490;28;130273;-70
2022/01/23 03:41:57;;;;;;;24.35;11.25;;;-7.80;21.10;;;-8.59;95.35;99762.63;4980835;28;118768;-70
2022/01/23 03:44:27;;;;;;;27.13;12.55;;;-7.80;20.80;;;-8.72;95.53;99768.50;4978795;28;115873;-69
2022/01/23 03:47:14;;;;;;;25.50;12.70;;;-7.80;20.90;;;-8.57;95.82;99786.94;4986639;28;130553;-69
2022/01/23 03:49:42;;;;;;;22.85;11.13;;;-7.80;21.90;;;-8.63;95.11;99792.91;4979038;28;129729;-70
2022/01/23 03:52:38;;;;;;;27.98;12.30;;;-7.80;21.80;;;-8.48;94.90;99809.53;4974420;28;118755;-69
2022/01/23 03:55:08;;;;;;;25.27;10.70;;;-7.80;24.30;;;-8.67;95.43;99814.31;4981329;28;115653;-70
2022/01/23 03:57:39;;;;;;;25.38;12.35;;;-7.80;22.70;;;-8.60;95.23;99808.34;4977836;28;129812;-69
2022/01/23 04:00:11;;;;;;;23.58;11.77;;;-7.80;23.40;;;-8.68;95.79;99812.72;4979470;28;129551;-69
2022/01/23 04:02:42;;;;;;;21.70;11.43;;;-7.80;23.00;;;-8.71;95.42;99818.31;4966453;28;117565;-69
2022/01/23 04:05:19;;;;;;;;;;;-7.70;22.40;;;-8.67;95.59;99829.31;4973876;28;115525;-69
2022/01/23 04:07:47;;;;;;;25.27;11.65;;;-7.70;21.50;;;-8.78;95.77;99833.16;4965883;28;130042;-69
2022/01/23 04:10:21;;;;;;;21.98;9.55;;;-7.80;20.60;;;-8.86;96.33;99841.13;4967189;28;128658;-69
2022/01/23 04:12:54;;;;;;;22.25;11.23;;;-7.80;19.70;;;-8.89;96.48;99846.75;4978663;28;118556;-69
2022/01/23 04:15:32;;;;;;;20.70;10.02;;;-7.80;21.80;;;-8.90;96.04;99839.84;4980432;28;116328;-69
2022/01/23 04:18:46;;;;;;;23.13;11.38;;;-7.80;19.90;;;-8.83;96.43;99829.44;4974445;28;129779;-69
2022/01/23 04:21:16;;;;;;;24.92;10.93;;;-7.80;20.10;;;-8.82;96.36;99826.63;4976143;28;130238;-69
2022/01/23 04:32:19;;;;;;;21.35;10.10;;;-7.90;21.80;;;-8.90;95.83;99822.25;4967663;28;128446;-69
2022/01/23 04:35:08;;;;;;;22.42;10.95;;;-7.90;20.70;;;-8.87;96.33;99826.34;4977693;28;118493;-69
2022/01/23 04:45:58;;;;;;;24.33;11.20;;;-7.90;21.80;;;-8.88;95.72;99874.69;5004716;28;118609;-70
2022/01/23 04:59:45;;;;;;;23.67;10.52;;;-7.90;22.00;;;-9.00;96.09;99891.88;4980874;28;115241;-70
2022/01/23 05:02:35;;;;;;;22.73;10.43;;;-7.90;18.80;;;-8.96;96.66;99898.41;4982575;28;130314;-69
2022/01/23 05:05:07;;;;;;;18.27;9.77;;;-7.90;18.50;;;-8.82;95.92;99900.28;4984308;28;132192;-70
2022/01/23 05:07:55;;;;;;;20.02;9.70;;;-7.90;19.90;;;-8.72;94.86;99906.13;4974876;28;119118;-69
2022/01/23 05:10:43;;;;;;;20.08;10.43;;;-7.80;18.80;;;-8.81;95.32;99907.19;4979656;28;115063;-69
2022/01/23 05:13:36;;;;;;;;;;;-7.80;20.40;;;-8.86;94.99;99899.00;4982621;28;129519;-69
2022/01/23 05:16:05;;;;;;;20.00;9.27;;;-7.90;17.10;;;-8.93;95.04;99903.31;4980865;28;130033;-69
2022/01/23 05:18:35;;;;;;;17.27;9.23;;;-7.90;13.90;;;-8.88;94.79;99914.97;4967025;28;117591;-69
2022/01/23 05:21:20;;;;;;;19.08;9.25;;;-7.70;15.30;;;-8.87;94.58;99918.41;4984379;28;115355;-69
2022/01/23 05:23:49;;;;;;;24.42;11.98;;;-7.90;15.90;;;-8.90;94.83;99922.19;4971065;28;130198;-69
2022/01/23 05:26:20;;;;;;;20.98;9.57;;;-7.90;15.50;;;-8.87;94.12;99915.78;4977853;28;129858;-69
2022/01/23 05:28:51;;;;;;;19.60;9.50;;;-7.90;13.80;;;-8.91;93.96;99922.38;4984553;28;119065;-69
2022/01/23 05:31:20;;;;;;;17.73;9.40;;;-7.90;9.90;;;-8.89;93.58;99925.66;4979822;28;115260;-69
2022/01/23 05:33:48;;;;;;;18.80;9.10;;;-7.90;11.30;;;-8.96;93.61;99943.13;4981578;28;129982;-69
2022/01/23 05:36:20;;;;;;;23.55;9.98;;;-8.00;8.90;;;-8.90;93.61;99940.63;4980622;28;129956;-70
2022/01/23 05:38:49;;;;;;;22.52;9.52;;;-7.90;11.20;;;-8.81;93.71;99937.94;4966340;28;119108;-70
2022/01/23 05:41:17;;;;;;;20.30;9.93;;;-7.90;12.90;;;-8.76;94.12;99960.09;4981293;28;115068;-70
2022/01/23 05:43:46;;;;;;;23.10;10.70;;;-7.90;15.50;;;-8.81;94.35;99965.06;4973216;28;129075;-69
2022/01/23 05:46:14;;;;;;;20.95;10.43;;;-7.90;14.30;;;-8.85;94.09;99976.94;4982104;28;129556;-69
2022/01/23 05:49:01;;;;;;;;;;;-7.90;13.30;;;-8.81;94.40;99986.13;4976500;28;118737;-69
2022/01/23 05:51:59;;;;;;;18.35;9.20;;;-7.90;15.50;;;-8.74;94.30;99991.50;4995551;28;114350;-70
2022/01/23 05:55:00;;;;;;;18.77;9.15;;;-7.90;15.60;;;-8.68;93.79;100007.44;4978313;28;129572;-70
2022/01/23 05:57:43;;;;;;;18.88;9.25;;;-7.80;15.00;;;-8.78;93.24;100012.09;4979693;28;129515;-70
2022/01/23 06:00:19;;;;;;;19.40;9.32;;;-7.90;11.60;;;-8.86;93.72;100020.03;4977524;28;119160;-70
2022/01/23 06:02:54;;;;;;;21.05;9.73;;;-7.90;11.00;;;-8.98;93.75;100011.69;4974815;28;114166;-70
2022/01/23 06:05:34;;;;;;;21.10;9.77;;;-7.90;12.20;;;-8.98;94.58;100021.41;4980903;28;129893;-69
2022/01/23 06:08:07;;;;;;;23.27;9.95;;;-8.00;14.60;;;-8.94;95.26;100033.19;4982935;28;130281;-69
2022/01/23 06:10:53;;;;;;;19.83;10.32;;;-8.00;17.80;;;-9.01;94.46;100037.53;4974587;28;118593;-69
2022/01/23 06:13:23;;;;;;;29.45;10.52;;;-8.00;15.80;;;-8.92;94.99;100036.50;4980993;28;115332;-69
2022/01/23 06:15:52;;;;;;;23.77;11.68;;;-8.00;17.10;;;-8.95;95.01;100042.09;4965392;28;128044;-70
2022/01/23 06:18:22;;;;;;;20.45;10.60;;;-8.10;20.60;;;-9.02;95.67;100041.13;4971749;28;130289;-70
2022/01/23 06:21:09;;;;;;;21.58;10.32;;;-8.10;25.10;;;-8.92;95.61;100047.03;4974169;28;118704;-70
2022/01/23 06:23:42;;;;;;;28.60;14.02;;;-8.10;26.90;;;-8.86;95.02;100051.59;4981567;28;115794;-70
2022/01/23 06:26:24;;;;;;;26.65;11.63;;;-8.10;24.00;;;-8.79;94.82;100057.81;4980542;28;129657;-70
2022/01/23 06:29:00;;;;;;;27.80;12.02;;;-8.10;21.90;;;-8.80;94.46;100066.72;4982355;28;129358;-70
2022/01/23 06:31:30;;;;;;;23.92;12.63;;;-8.10;19.40;;;-8.72;94.14;100069.28;4978134;28;118697;-70
2022/01/23 06:33:58;;;;;;;21.27;10.52;;;-8.10;20.60;;;-8.58;93.69;100074.84;4973122;28;116170;-69
2022/01/23 06:39:13;;;;;;;21.60;10.10;;;-8.00;18.20;;;-8.70;94.43;100083.09;4979311;28;129782;-70
2022/01/23 06:41:43;;;;;;;21.83;9.27;;;-8.10;19.30;;;-8.83;93.28;100088.09;4975345;28;118708;-70
2022/01/23 06:44:27;;;;;;;17.05;8.52;;;-8.10;14.50;;;-8.80;92.71;100090.38;4974548;28;115040;-70
2022/01/23 06:46:57;;;;;;;18.40;8.85;;;-8.00;11.80;;;-8.78;92.58;100096.28;4982513;28;129940;-69
2022/01/23 06:49:26;;;;;;;22.00;10.00;;;-8.00;10.20;;;-8.69;92.16;100099.72;4980286;28;129609;-70
2022/01/23 06:51:57;;;;;;;29.85;13.88;;;-8.10;9.80;;;-8.61;92.45;100104.94;4982375;28;119298;-69
2022/01/23 06:54:29;;;;;;;22.98;10.90;;;-8.00;9.70;;;-8.50;91.41;100106.38;4981581;28;115641;-70
2022/01/23 06:56:59;;;;;;;23.77;11.82;;;-8.00;11.20;;;-8.46;90.51;100102.41;4971072;28;130999;-70
2022/01/23 06:59:28;;;;;;;23.83;11.27;;;-8.00;10.70;;;-8.37;90.71;100103.94;4981246;28;129495;-70
2022/01/23 07:02:08;;;;;;;19.90;10.05;;;-8.00;11.00;;;-8.40;90.70;100104.28;4982617;28;118740;-70
2022/01/23 07:05:01;;;;;;;20.73;11.30;;;-7.90;9.40;;;-8.44;90.01;100108.31;4982180;28;115824;-70
2022/01/23 07:07:39;;;;;;;19.38;10.32;;;-7.90;5.90;;;-8.24;89.81;100110.47;4970537;28;129669;-70
2022/01/23 07:10:24;;;;;;;20.05;9.05;;;-7.80;6.30;;;-8.18;88.92;100120.31;4957084;28;128628;-70
2022/01/23 07:13:28;;;;;;;19.17;9.73;;;-7.70;3.60;;;-8.00;88.62;100120.84;4973986;28;118900;-70
2022/01/23 07:16:12;;;;;;;20.95;9.70;;;-7.70;3.70;;;-7.87;88.29;100135.25;4971300;28;115454;-70
2022/01/23 07:19:18;;;;;;;25.38;12.55;;;-7.60;2.80;;;-7.81;88.61;100129.28;4977853;28;129982;-70
2022/01/23 07:22:01;;;;;;;20.73;10.63;;;-7.60;5.80;;;-7.68;88.77;100133.97;4976968;28;129392;-70
2022/01/23 07:24:31;;;;;;;21.98;11.15;;;-7.60;10.90;;;-7.86;88.40;100142.19;4980326;28;118475;-70
2022/01/23 07:27:11;;;;;;;21.20;9.60;;;-7.50;8.00;;;-7.37;87.79;100152.31;4982217;28;115503;-70
2022/01/23 07:29:41;;;;;;;23.15;12.13;;;-7.40;11.80;;;-7.68;88.02;100155.06;4982944;28;129877;-69
2022/01/23 07:32:12;;;;;;;26.35;11.55;;;-7.50;8.60;;;-7.37;88.26;100152.31;4983061;28;129499;-70
2022/01/23 07:34:41;;;;;;;23.95;11.43;;;-7.40;9.90;;;-7.39;87.96;100151.69;4981461;28;119047;-70
2022/01/23 07:37:13;;;;;;;23.25;11.25;;;-7.30;8.20;;;-7.36;87.34;100146.06;4983275;28;115878;-70
2022/01/23 07:40:06;;;;;;;21.88;11.00;;;-7.30;9.20;;;-7.49;87.90;100151.13;4982740;28;129523;-70
2022/01/23 07:42:41;;;;;;;22.25;11.25;;;-7.30;7.30;;;-7.44;87.67;100159.34;4967509;28;128670;-70
2022/01/23 07:45:30;;;;;;;21.92;11.60;;;-7.30;8.20;;;-7.07;87.47;100162.97;4966288;28;120212;-69
2022/01/23 07:48:24;;;;;;;24.00;12.52;;;-7.20;10.90;;;-7.17;87.65;100176.38;4969971;28;114694;-69
2022/01/23 07:51:01;;;;;;;21.23;11.18;;;-7.20;8.30;;;-7.04;87.33;100189.00;4983075;28;130611;-69
2022/01/23 07:53:47;;;;;;;21.52;11.30;;;-7.10;8.50;;;-7.31;87.67;100201.72;4985892;28;130567;-69
2022/01/23 07:56:30;;;;;;;25.08;11.95;;;-7.20;6.20;;;-7.20;87.42;100204.97;4969858;28;118169;-69
2022/01/23 07:59:17;;;;;;;24.05;11.23;;;-7.20;5.20;;;-7.16;87.47;100198.34;4985388;28;116073;-69
2022/01/23 08:02:12;;;;;;;24.17;13.25;;;-7.10;5.50;;;-7.14;87.23;100199.78;4969316;28;130385;-69
2022/01/23 08:04:41;;;;;;;21.60;10.93;;;-7.10;7.20;;;-7.02;85.93;100213.38;4985782;28;129632;-69
2022/01/23 08:07:22;;;;;;;20.88;10.90;;;-7.10;2.80;;;-6.96;86.81;100212.66;4985608;28;118518;-71
2022/01/23 08:09:51;;;;;;;23.73;10.82;;;-7.00;6.40;;;-6.98;85.90;100219.94;4983574;28;116097;-69
2022/01/23 08:12:21;;;;;;;20.40;9.90;;;-7.00;1.60;;;-7.16;86.32;100230.81;4984628;28;129947;-69
2022/01/23 08:14:51;;;;;;;22.63;11.05;;;-7.10;3.90;;;-6.98;86.59;100225.22;4982973;28;130465;-69
2022/01/23 08:17:24;;;;;;;25.88;13.20;;;-7.00;6.30;;;-7.05;85.86;100234.84;4985907;28;117625;-69
2022/01/23 08:19:53;;;;;;;22.42;10.45;;;-7.00;1.60;;;-7.12;86.31;100242.66;4984161;28;115550;-70
2022/01/23 08:22:23;;;;;;;29.83;12.70;;;-7.00;2.40;;;-6.92;86.47;100245.63;4983697;28;130756;-70
2022/01/23 08:24:54;;;;;;;18.33;10.02;;;-6.90;5.30;;;-6.77;85.47;100242.19;4983800;28;129741;-70
2022/01/23 08:27:23;;;;;;;19.63;10.90;;;-6.80;2.00;;;-6.61;85.60;100249.94;4983832;28;118852;-70
2022/01/23 08:29:53;;;;;;;23.42;10.60;;;-6.80;4.20;;;-6.58;84.37;100246.91;4984100;28;115820;-70
2022/01/23 08:32:22;;;;;;;16.73;9.30;;;-6.80;1.00;;;-6.65;84.69;100253.94;4983726;28;129869;-70
2022/01/23 08:34:51;;;;;;;22.95;10.30;;;-6.80;1.00;;;-6.78;84.38;100251.91;4983734;28;130700;-70
2022/01/23 08:37:20;;;;;;;22.25;10.70;;;-6.80;1.00;;;-6.39;84.70;100255.31;4984147;28;118802;-70
2022/01/23 08:39:48;;;;;;;20.60;10.63;;;-6.70;4.10;;;-6.35;83.18;100267.16;4971770;28;115726;-69
2022/01/23 08:42:18;;;;;;;22.35;10.60;;;-6.60;1.00;;;-6.34;82.71;100271.47;4966951;28;130231;-69
2022/01/23 08:44:48;;;;;;;20.27;10.57;;;-6.70;1.00;;;-6.24;82.57;100279.13;4966727;28;130605;-70
2022/01/23 08:47:21;;;;;;;21.20;10.98;;;-6.50;1.00;;;-5.96;82.36;100282.69;4964265;28;118952;-70
2022/01/23 08:49:53;;;;;;;23.42;11.15;;;-6.40;1.00;;;-6.13;83.11;100281.28;4964217;28;115834;-69
2022/01/23 08:52:22;;;;;;;22.08;10.35;;;-6.70;1.00;;;-6.39;82.87;100287.00;4966132;28;130414;-69
2022/01/23 08:54:56;;;;;;;24.63;12.02;;;-6.60;1.00;;;-6.07;83.19;100290.31;4997191;28;128601;-70
2022/01/23 08:57:26;;;;;;;19.70;10.65;;;-6.50;1.00;;;-6.05;82.66;100288.31;4963618;28;119185;-70
2022/01/23 08:59:58;;;;;;;21.92;10.52;;;-6.40;1.00;;;-6.01;81.96;100300.16;4982141;28;114667;-69
2022/01/23 09:02:29;;;;;;;23.42;11.93;;;-6.40;1.00;;;-5.01;79.39;100311.03;4964852;28;129835;-70
2022/01/23 09:05:00;;;;;;;21.05;11.43;;;-6.10;1.00;;;-4.88;77.45;100317.25;4998714;28;128893;-70
2022/01/23 09:07:29;;;;;;;18.80;10.13;;;-5.90;1.00;;;-4.91;77.08;100308.84;4966307;28;118774;-70
2022/01/23 09:10:01;;;;;;;21.83;11.38;;;-5.80;1.00;;;-4.14;76.02;100317.81;4964113;28;116092;-70
2022/01/23 09:12:44;;;;;;;21.40;11.73;;;-5.50;1.00;;;-3.70;74.10;100313.94;4963001;28;130036;-70
2022/01/23 09:15:15;;;;;;;25.10;11.98;;;-5.30;1.00;;;-3.62;72.86;100315.59;4963252;28;129914;-70
2022/01/23 09:17:45;;;;;;;21.00;11.32;;;-5.30;1.00;;;-4.12;73.34;100309.66;4965845;28;118858;-70
2022/01/23 09:23:11;;;;;;;18.20;10.48;;;-5.50;1.00;;;-4.57;75.66;100328.50;5107487;27;102508;-70
2022/01/23 09:25:40;;;;;;;15.88;9.63;;;-5.70;1.00;;;-4.52;75.84;100331.38;5080047;27;116008;-69
2022/01/23 09:28:13;;;;;;;17.52;9.60;;;-5.70;1.00;;;-5.06;76.52;100333.56;5080182;27;129940;-69
2022/01/23 09:30:45;;;;;;;18.35;10.68;;;-5.70;1.00;;;-4.79;76.98;100331.16;5082513;27;128727;-69
2022/01/23 09:33:13;;;;;;;20.58;10.20;;;-5.60;1.00;;;-4.88;76.79;100340.25;5080996;27;119069;-70
2022/01/23 09:35:42;;;;;;;17.10;9.68;;;-5.60;1.00;;;-4.84;76.66;100338.06;5082670;27;115991;-70
2022/01/23 09:38:12;;;;;;;63.67;23.95;;;-5.60;1.00;;;-5.35;78.21;100337.13;5081694;27;131307;-71
2022/01/23 09:40:43;;;;;;;24.30;11.73;;;-5.80;1.00;;;-5.68;79.68;100331.47;5082329;27;129704;-69
2022/01/23 09:43:19;;;;;;;22.25;10.32;;;-6.00;1.00;;;-5.46;79.52;100335.78;5083144;27;118714;-71
2022/01/23 09:45:50;;;;;;;19.35;10.07;;;-5.80;1.00;;;-5.10;79.33;100342.09;5081039;27;116401;-70
2022/01/23 09:48:21;;;;;;;18.58;10.23;;;-5.70;1.00;;;-5.43;79.32;100351.28;5079231;27;129816;-70
2022/01/23 09:50:53;;;;;;;19.08;10.73;;;-5.70;1.00;;;-5.19;79.48;100364.38;5082232;27;129777;-70
2022/01/23 09:53:24;;;;;;;20.10;10.70;;;-5.60;1.00;;;-5.34;79.31;100351.19;5081535;27;118590;-70
2022/01/23 09:55:58;;;;;;;17.98;9.35;;;-5.70;1.00;;;-5.54;79.91;100357.06;5079880;27;115872;-70
2022/01/23 09:58:27;;;;;;;19.05;10.48;;;-5.80;1.00;;;-5.60;80.17;100366.53;5079893;27;130582;-70
2022/01/23 10:00:56;;;;;;;22.88;10.95;;;-5.80;1.00;;;-5.39;80.78;100369.44;5079103;27;129819;-70
2022/01/23 10:03:25;;;;;;;18.48;10.25;;;-5.70;1.00;;;-5.49;80.12;100378.47;5082071;27;118620;-71
2022/01/23 10:05:57;;;;;;;18.77;9.85;;;-5.80;1.00;;;-5.63;80.98;100382.78;5079522;27;116191;-69
2022/01/23 10:08:30;;;;;;;22.08;11.13;;;-5.80;1.00;;;-5.66;81.31;100382.34;5080155;27;129671;-69
2022/01/23 10:10:59;;;;;;;18.73;10.73;;;-5.80;1.00;;;-5.82;81.22;100386.00;5080730;27;128570;-71
2022/01/23 10:13:31;;;;;;;19.83;9.77;;;-5.90;1.00;;;-5.39;80.28;100383.50;5079062;27;118773;-70
2022/01/23 10:15:59;;;;;;;20.33;9.65;;;-5.70;1.00;;;-5.14;79.52;100396.38;5080514;27;114259;-70
2022/01/23 10:18:29;;;;;;;20.73;11.18;;;-5.60;1.00;;;-5.27;81.02;100397.06;5081085;27;128926;-71
2022/01/23 10:20:59;;;;;;;18.60;10.57;;;-5.70;1.00;;;-4.98;79.54;100390.88;5079518;27;129756;-70
2022/01/23 10:23:29;;;;;;;20.55;10.38;;;-5.50;1.00;;;-4.79;77.21;100397.38;5080676;27;118741;-70
2022/01/23 10:25:57;;;;;;;20.80;10.15;;;-5.30;1.00;;;-4.44;76.90;100397.53;5080910;27;116587;-70
2022/01/23 10:28:29;;;;;;;21.33;10.45;;;-5.20;1.00;;;-4.55;76.54;100412.09;5078445;27;129589;-69
2022/01/23 10:31:03;;;;;;;19.77;10.90;;;-5.30;1.00;;;-5.27;78.60;100407.66;5078893;27;129845;-70
2022/01/23 10:33:36;;;;;;;18.55;10.65;;;-5.60;1.00;;;-5.29;79.84;100404.38;5073101;27;118208;-70
2022/01/23 10:36:10;;;;;;;22.48;10.93;;;-5.60;1.00;;;-5.38;79.54;100408.94;5065700;27;115774;-70
2022/01/23 10:38:56;;;;;;;19.88;9.73;;;-5.60;1.00;;;-5.39;79.64;100409.13;5066744;27;129900;-69
2022/01/23 10:41:45;;;;;;;15.60;9.13;;;-5.60;1.00;;;-5.43;80.90;100414.78;5068612;27;129533;-70
2022/01/23 10:50:03;;;;;;;18.02;10.60;;;-5.50;1.00;;;-5.02;78.72;100412.63;5062608;27;130755;-70
2022/01/23 10:52:33;;;;;;;21.77;11.30;;;-5.60;1.00;;;-5.04;79.42;100406.69;5065283;27;129798;-70
2022/01/23 10:55:10;;;;;;;18.60;10.32;;;-5.50;1.00;;;-4.96;78.71;100414.53;5067019;27;118929;-70
2022/01/23 10:57:42;;;;;;;21.55;11.95;;;-5.50;1.00;;;-4.63;78.51;100419.34;5065301;27;115697;-71
2022/01/23 11:00:22;;;;;;;17.25;10.02;;;-5.30;1.00;;;-4.56;78.00;100415.75;5083261;27;130015;-70
2022/01/23 11:02:51;;;;;;;20.80;10.88;;;-5.20;1.00;;;-4.21;76.92;100423.78;5084050;27;129340;-71
2022/01/23 11:05:21;;;;;;;18.75;10.82;;;-5.10;1.00;;;-3.99;75.96;100421.94;5067297;27;118811;-69
2022/01/23 11:07:52;;;;;;;19.70;10.85;;;-5.00;1.00;;;-4.59;76.42;100428.56;5068057;27;116461;-68
2022/01/23 11:10:23;;;;;;;19.35;10.60;;;-5.30;1.00;;;-4.25;76.14;100421.72;5066825;27;129965;-70
2022/01/23 11:18:38;;;;;;;18.95;10.02;;;-5.20;1.00;;;-4.93;77.45;100445.94;5085089;27;115942;-71
2022/01/23 11:21:22;;;;;;;19.30;10.30;;;-5.50;1.00;;;-4.58;77.48;100454.03;5065751;27;130071;-70
2022/01/23 11:23:58;;;;;;;20.33;10.45;;;-5.30;1.00;;;-4.54;76.07;100460.59;5065003;27;129775;-70
2022/01/23 11:26:29;;;;;;;18.60;10.10;;;-5.30;1.00;;;-4.82;76.90;100456.03;5067634;27;119527;-70
2022/01/23 11:28:57;;;;;;;19.02;10.02;;;-5.50;1.00;;;-4.97;78.36;100449.94;5065358;27;116189;-70
2022/01/23 11:31:30;;;;;;;19.02;9.93;;;-5.60;1.00;;;-5.20;78.61;100456.19;5065023;27;130586;-70
2022/01/23 11:34:01;;;;;;;17.42;9.45;;;-5.60;1.00;;;-5.01;78.41;100453.97;5066642;27;129716;-70
2022/01/23 11:36:30;;;;;;;19.52;11.02;;;-5.60;1.00;;;-4.93;77.87;100459.97;5067353;27;119326;-69
2022/01/23 11:39:10;;;;;;;22.55;10.40;;;-5.50;1.00;;;-4.78;78.04;100467.09;5065564;27;116239;-70
2022/01/23 11:53:50;;;;;;;17.88;9.05;;;-5.60;1.00;;;-5.10;79.44;100487.66;5065711;27;130357;-69
2022/01/23 11:56:47;;;;;;;17.27;9.35;;;-5.50;1.00;;;-5.34;80.60;100491.44;5065394;27;130309;-70
2022/01/23 11:59:42;;;;;;;16.50;9.27;;;-5.50;1.00;;;-5.36;80.58;100498.72;5068665;27;118601;-70
2022/01/23 12:02:36;;;;;;;22.17;10.90;;;-5.50;1.00;;;-5.17;80.38;100498.19;5067854;27;113836;-69
2022/01/23 12:05:32;;;;;;;21.98;11.20;;;-5.40;1.00;;;-5.45;80.30;100501.47;5064382;27;130087;-70
2022/01/23 12:08:36;;;;;;;17.13;9.18;;;-5.60;1.00;;;-5.49;80.79;100496.72;5064751;27;129770;-70
2022/01/23 12:17:39;;;;;;;17.42;9.43;;;-5.70;1.00;;;-5.57;81.25;100513.50;5066171;27;128910;-70
2022/01/23 12:20:09;;;;;;;24.65;13.30;;;-5.60;1.00;;;-5.13;81.46;100510.03;5063984;27;129496;-69
2022/01/23 12:22:45;;;;;;;24.98;12.75;;;-5.40;1.00;;;-4.89;80.07;100516.06;5066680;27;118682;-71
2022/01/23 12:25:48;;;;;;;22.43;13.70;;;-5.30;1.00;;;-4.90;79.84;100520.50;5066712;27;115704;-70
2022/01/23 12:28:28;;;;;;;16.73;9.30;;;-5.30;1.00;;;-4.96;79.39;100525.72;5065125;27;129708;-69
2022/01/23 12:31:01;;;;;;;14.98;7.50;;;-5.40;1.00;;;-5.25;79.49;100522.91;5066389;27;129523;-68
2022/01/23 12:33:44;;;;;;;21.65;10.02;;;-5.50;1.00;;;-5.36;80.96;100526.03;5064231;27;119152;-69
2022/01/23 12:36:32;;;;;;;21.67;10.15;;;-5.60;1.00;;;-5.58;81.92;100517.13;5064231;27;116586;-68
2022/01/23 12:39:19;;;;;;;22.48;11.00;;;-5.60;1.00;;;-5.52;81.75;100527.00;5063555;27;129917;-67
2022/01/23 12:41:59;;;;;;;;;;;-5.60;1.00;;;-5.46;81.28;100526.25;5065994;27;128562;-68
2022/01/23 12:44:37;;;;;;;16.45;8.77;;;-5.50;1.00;;;-5.42;81.53;100527.56;5067620;27;118890;-68
2022/01/23 12:47:19;;;;;;;21.90;9.52;;;-5.50;1.00;;;-5.39;81.91;100530.84;5064388;27;113806;-68
2022/01/23 12:49:52;;;;;;;21.83;11.70;;;-5.60;1.00;;;-5.16;81.70;100541.34;5063880;27;130800;-68
2022/01/23 12:52:23;;;;;;;28.17;14.85;;;-5.50;1.00;;;-5.29;81.42;100539.34;5063232;27;129816;-68
2022/01/23 12:54:57;;;;;;;20.80;12.43;;;-5.60;1.00;;;-5.28;81.22;100541.00;5063656;27;118915;-68
2022/01/23 12:57:37;;;;;;;19.83;10.65;;;-5.50;1.00;;;-5.74;81.80;100538.47;5062095;27;115978;-68
2022/01/23 13:00:15;;;;;;;19.15;10.35;;;-5.70;1.00;;;-5.79;82.51;100545.09;5062287;27;129634;-67